sensor_id;sensor_type;location;lat;lon;timestamp;temperature;humidity
51007;DHT22;37034;47.886;-3.904;2023-07-08T00:00:16;23.90;87.20
51007;DHT22;37034;47.886;-3.904;2023-07-08T00:02:43;23.90;87.40
51007;DHT22;37034;47.886;-3.904;2023-07-08T00:05:13;23.90;87.30
51007;DHT22;37034;47.886;-3.904;2023-07-08T00:07:40;23.90;87.40
51007;DHT22;37034;47.886;-3.904;2023-07-08T00:10:15;23.90;87.50
51007;DHT22;37034;47.886;-3.904;2023-07-08T00:12:42;23.90;87.60
51007;DHT22;37034;47.886;-3.904;2023-07-08T00:15:08;23.80;87.40
51007;DHT22;37034;47.886;-3.904;2023-07-08T00:17:34;23.80;87.50
51007;DHT22;37034;47.886;-3.904;2023-07-08T00:19:59;23.80;87.60
51007;DHT22;37034;47.886;-3.904;2023-07-08T00:22:25;23.80;87.70
51007;DHT22;37034;47.886;-3.904;2023-07-08T00:24:51;23.80;87.70
51007;DHT22;37034;47.886;-3.904;2023-07-08T00:27:17;23.80;87.80
51007;DHT22;37034;47.886;-3.904;2023-07-08T00:29:43;23.80;88.00
51007;DHT22;37034;47.886;-3.904;2023-07-08T00:32:09;23.80;87.90
51007;DHT22;37034;47.886;-3.904;2023-07-08T00:34:35;23.80;89.00
51007;DHT22;37034;47.886;-3.904;2023-07-08T00:37:01;23.80;87.90
51007;DHT22;37034;47.886;-3.904;2023-07-08T00:39:33;23.80;88.00
51007;DHT22;37034;47.886;-3.904;2023-07-08T00:42:01;23.80;88.20
51007;DHT22;37034;47.886;-3.904;2023-07-08T00:44:27;23.70;88.70
51007;DHT22;37034;47.886;-3.904;2023-07-08T00:47:04;23.70;88.30
51007;DHT22;37034;47.886;-3.904;2023-07-08T00:49:45;23.70;88.80
51007;DHT22;37034;47.886;-3.904;2023-07-08T00:52:23;23.70;89.00
51007;DHT22;37034;47.886;-3.904;2023-07-08T00:54:54;23.80;88.60
51007;DHT22;37034;47.886;-3.904;2023-07-08T00:57:23;23.70;88.50
51007;DHT22;37034;47.886;-3.904;2023-07-08T01:02:26;23.70;88.80
51007;DHT22;37034;47.886;-3.904;2023-07-08T01:04:58;23.70;88.80
51007;DHT22;37034;47.886;-3.904;2023-07-08T01:07:26;23.70;88.80
51007;DHT22;37034;47.886;-3.904;2023-07-08T01:10:03;23.70;88.70
51007;DHT22;37034;47.886;-3.904;2023-07-08T01:12:34;23.70;88.90
51007;DHT22;37034;47.886;-3.904;2023-07-08T01:15:03;23.70;88.80
51007;DHT22;37034;47.886;-3.904;2023-07-08T01:17:29;23.70;88.70
51007;DHT22;37034;47.886;-3.904;2023-07-08T01:20:01;23.70;88.90
51007;DHT22;37034;47.886;-3.904;2023-07-08T01:22:39;23.70;89.00
51007;DHT22;37034;47.886;-3.904;2023-07-08T01:25:06;23.70;89.50
51007;DHT22;37034;47.886;-3.904;2023-07-08T01:27:36;23.70;89.00
51007;DHT22;37034;47.886;-3.904;2023-07-08T01:30:04;23.70;89.10
51007;DHT22;37034;47.886;-3.904;2023-07-08T01:32:32;23.70;88.90
51007;DHT22;37034;47.886;-3.904;2023-07-08T01:35:00;23.70;88.90
51007;DHT22;37034;47.886;-3.904;2023-07-08T01:37:37;23.70;88.90
51007;DHT22;37034;47.886;-3.904;2023-07-08T01:40:29;23.70;89.10
51007;DHT22;37034;47.886;-3.904;2023-07-08T01:42:56;23.60;89.40
51007;DHT22;37034;47.886;-3.904;2023-07-08T01:45:25;23.60;89.10
51007;DHT22;37034;47.886;-3.904;2023-07-08T01:47:56;23.60;89.10
51007;DHT22;37034;47.886;-3.904;2023-07-08T01:50:24;23.60;89.30
51007;DHT22;37034;47.886;-3.904;2023-07-08T01:52:51;23.50;89.20
51007;DHT22;37034;47.886;-3.904;2023-07-08T01:55:25;23.50;89.80
51007;DHT22;37034;47.886;-3.904;2023-07-08T01:57:52;23.50;90.00
51007;DHT22;37034;47.886;-3.904;2023-07-08T02:00:21;23.50;90.00
51007;DHT22;37034;47.886;-3.904;2023-07-08T02:02:48;23.50;90.10
51007;DHT22;37034;47.886;-3.904;2023-07-08T02:05:14;23.60;90.30
51007;DHT22;37034;47.886;-3.904;2023-07-08T02:07:40;23.60;90.20
51007;DHT22;37034;47.886;-3.904;2023-07-08T02:10:06;23.60;90.30
51007;DHT22;37034;47.886;-3.904;2023-07-08T02:12:31;23.50;90.30
51007;DHT22;37034;47.886;-3.904;2023-07-08T02:15:00;23.60;90.90
51007;DHT22;37034;47.886;-3.904;2023-07-08T02:17:26;23.50;90.30
51007;DHT22;37034;47.886;-3.904;2023-07-08T02:19:54;23.50;90.40
51007;DHT22;37034;47.886;-3.904;2023-07-08T02:22:20;23.50;90.40
51007;DHT22;37034;47.886;-3.904;2023-07-08T02:24:45;23.40;90.40
51007;DHT22;37034;47.886;-3.904;2023-07-08T02:27:11;23.40;90.50
51007;DHT22;37034;47.886;-3.904;2023-07-08T02:29:37;23.40;90.60
51007;DHT22;37034;47.886;-3.904;2023-07-08T02:32:03;23.40;90.60
51007;DHT22;37034;47.886;-3.904;2023-07-08T02:34:29;23.50;91.00
51007;DHT22;37034;47.886;-3.904;2023-07-08T02:36:55;23.40;90.50
51007;DHT22;37034;47.886;-3.904;2023-07-08T02:39:21;23.40;90.70
51007;DHT22;37034;47.886;-3.904;2023-07-08T02:41:47;23.40;91.30
51007;DHT22;37034;47.886;-3.904;2023-07-08T02:44:13;23.40;90.70
51007;DHT22;37034;47.886;-3.904;2023-07-08T02:46:39;23.30;90.90
51007;DHT22;37034;47.886;-3.904;2023-07-08T02:49:04;23.30;91.00
51007;DHT22;37034;47.886;-3.904;2023-07-08T02:51:31;23.30;91.00
51007;DHT22;37034;47.886;-3.904;2023-07-08T02:53:56;23.30;90.90
51007;DHT22;37034;47.886;-3.904;2023-07-08T02:56:22;23.30;91.00
51007;DHT22;37034;47.886;-3.904;2023-07-08T02:58:48;23.30;90.90
51007;DHT22;37034;47.886;-3.904;2023-07-08T03:01:14;23.30;91.00
51007;DHT22;37034;47.886;-3.904;2023-07-08T03:03:44;23.20;91.00
51007;DHT22;37034;47.886;-3.904;2023-07-08T03:06:10;23.20;91.10
51007;DHT22;37034;47.886;-3.904;2023-07-08T03:08:36;23.20;91.00
51007;DHT22;37034;47.886;-3.904;2023-07-08T03:11:04;23.20;91.10
51007;DHT22;37034;47.886;-3.904;2023-07-08T03:13:30;23.10;91.30
51007;DHT22;37034;47.886;-3.904;2023-07-08T03:15:58;23.10;91.20
51007;DHT22;37034;47.886;-3.904;2023-07-08T03:18:27;23.10;91.30
51007;DHT22;37034;47.886;-3.904;2023-07-08T03:20:55;23.00;91.30
51007;DHT22;37034;47.886;-3.904;2023-07-08T03:23:22;23.10;91.30
51007;DHT22;37034;47.886;-3.904;2023-07-08T03:25:47;23.10;91.30
51007;DHT22;37034;47.886;-3.904;2023-07-08T03:28:13;23.10;91.40
51007;DHT22;37034;47.886;-3.904;2023-07-08T03:30:41;23.10;91.50
51007;DHT22;37034;47.886;-3.904;2023-07-08T03:33:08;23.10;91.50
51007;DHT22;37034;47.886;-3.904;2023-07-08T03:35:34;23.10;91.50
51007;DHT22;37034;47.886;-3.904;2023-07-08T03:38:00;23.10;91.50
51007;DHT22;37034;47.886;-3.904;2023-07-08T03:40:25;23.10;91.50
51007;DHT22;37034;47.886;-3.904;2023-07-08T03:42:51;23.10;91.50
51007;DHT22;37034;47.886;-3.904;2023-07-08T03:45:17;23.10;91.60
51007;DHT22;37034;47.886;-3.904;2023-07-08T03:47:42;23.10;91.60
51007;DHT22;37034;47.886;-3.904;2023-07-08T03:50:26;23.10;91.50
51007;DHT22;37034;47.886;-3.904;2023-07-08T03:52:54;23.10;91.90
51007;DHT22;37034;47.886;-3.904;2023-07-08T03:55:20;23.10;91.50
51007;DHT22;37034;47.886;-3.904;2023-07-08T03:57:46;23.00;91.50
51007;DHT22;37034;47.886;-3.904;2023-07-08T04:00:12;23.00;91.50
51007;DHT22;37034;47.886;-3.904;2023-07-08T04:02:39;23.00;91.50
51007;DHT22;37034;47.886;-3.904;2023-07-08T04:05:05;23.00;91.60
51007;DHT22;37034;47.886;-3.904;2023-07-08T04:07:33;23.00;91.70
51007;DHT22;37034;47.886;-3.904;2023-07-08T04:09:58;23.00;91.80
51007;DHT22;37034;47.886;-3.904;2023-07-08T04:12:24;23.00;91.60
51007;DHT22;37034;47.886;-3.904;2023-07-08T04:14:50;23.00;91.70
51007;DHT22;37034;47.886;-3.904;2023-07-08T04:17:17;22.90;91.70
51007;DHT22;37034;47.886;-3.904;2023-07-08T04:19:44;23.00;91.80
51007;DHT22;37034;47.886;-3.904;2023-07-08T04:22:10;23.00;91.70
51007;DHT22;37034;47.886;-3.904;2023-07-08T04:24:36;23.00;91.70
51007;DHT22;37034;47.886;-3.904;2023-07-08T04:27:02;22.90;91.70
51007;DHT22;37034;47.886;-3.904;2023-07-08T04:29:28;22.90;91.70
51007;DHT22;37034;47.886;-3.904;2023-07-08T04:31:54;22.90;91.70
51007;DHT22;37034;47.886;-3.904;2023-07-08T04:34:20;22.90;91.80
51007;DHT22;37034;47.886;-3.904;2023-07-08T04:36:45;23.00;91.80
51007;DHT22;37034;47.886;-3.904;2023-07-08T04:39:12;23.00;91.90
51007;DHT22;37034;47.886;-3.904;2023-07-08T04:41:39;23.00;91.90
51007;DHT22;37034;47.886;-3.904;2023-07-08T04:44:12;23.00;91.90
51007;DHT22;37034;47.886;-3.904;2023-07-08T04:49:10;22.90;91.90
51007;DHT22;37034;47.886;-3.904;2023-07-08T04:51:37;22.90;91.90
51007;DHT22;37034;47.886;-3.904;2023-07-08T04:54:03;23.00;91.90
51007;DHT22;37034;47.886;-3.904;2023-07-08T04:56:42;22.90;91.90
51007;DHT22;37034;47.886;-3.904;2023-07-08T04:59:09;23.00;92.30
51007;DHT22;37034;47.886;-3.904;2023-07-08T05:01:36;23.00;91.90
51007;DHT22;37034;47.886;-3.904;2023-07-08T05:04:02;23.00;92.00
51007;DHT22;37034;47.886;-3.904;2023-07-08T05:06:28;23.00;92.00
51007;DHT22;37034;47.886;-3.904;2023-07-08T05:08:54;23.00;92.10
51007;DHT22;37034;47.886;-3.904;2023-07-08T05:11:20;22.90;92.30
51007;DHT22;37034;47.886;-3.904;2023-07-08T05:13:45;23.00;92.20
51007;DHT22;37034;47.886;-3.904;2023-07-08T05:16:11;23.00;92.30
51007;DHT22;37034;47.886;-3.904;2023-07-08T05:18:37;23.00;92.30
51007;DHT22;37034;47.886;-3.904;2023-07-08T05:21:02;23.00;92.40
51007;DHT22;37034;47.886;-3.904;2023-07-08T05:23:28;22.90;92.50
51007;DHT22;37034;47.886;-3.904;2023-07-08T05:25:54;22.90;92.40
51007;DHT22;37034;47.886;-3.904;2023-07-08T05:28:20;22.90;92.50
51007;DHT22;37034;47.886;-3.904;2023-07-08T05:30:53;22.90;92.50
51007;DHT22;37034;47.886;-3.904;2023-07-08T05:33:19;22.90;92.60
51007;DHT22;37034;47.886;-3.904;2023-07-08T05:35:45;22.90;92.60
51007;DHT22;37034;47.886;-3.904;2023-07-08T05:38:11;22.90;92.70
51007;DHT22;37034;47.886;-3.904;2023-07-08T05:40:36;23.00;92.60
51007;DHT22;37034;47.886;-3.904;2023-07-08T05:43:02;22.90;92.70
51007;DHT22;37034;47.886;-3.904;2023-07-08T05:45:28;22.90;92.70
51007;DHT22;37034;47.886;-3.904;2023-07-08T05:47:54;23.00;92.90
51007;DHT22;37034;47.886;-3.904;2023-07-08T05:50:19;23.00;92.90
51007;DHT22;37034;47.886;-3.904;2023-07-08T05:52:45;23.00;92.90
51007;DHT22;37034;47.886;-3.904;2023-07-08T05:55:10;23.00;93.00
51007;DHT22;37034;47.886;-3.904;2023-07-08T05:57:36;23.00;92.90
51007;DHT22;37034;47.886;-3.904;2023-07-08T06:00:03;23.10;93.00
51007;DHT22;37034;47.886;-3.904;2023-07-08T06:02:28;23.10;93.00
51007;DHT22;37034;47.886;-3.904;2023-07-08T06:04:54;23.10;93.00
51007;DHT22;37034;47.886;-3.904;2023-07-08T06:07:20;23.10;93.00
51007;DHT22;37034;47.886;-3.904;2023-07-08T06:09:45;23.10;93.10
51007;DHT22;37034;47.886;-3.904;2023-07-08T06:12:11;23.20;93.10
51007;DHT22;37034;47.886;-3.904;2023-07-08T06:14:37;23.20;93.00
51007;DHT22;37034;47.886;-3.904;2023-07-08T06:17:04;23.20;93.30
51007;DHT22;37034;47.886;-3.904;2023-07-08T06:19:30;23.30;93.20
51007;DHT22;37034;47.886;-3.904;2023-07-08T06:21:56;23.30;93.20
51007;DHT22;37034;47.886;-3.904;2023-07-08T06:24:21;23.30;93.10
51007;DHT22;37034;47.886;-3.904;2023-07-08T06:26:47;23.30;93.20
51007;DHT22;37034;47.886;-3.904;2023-07-08T06:29:13;23.30;93.30
51007;DHT22;37034;47.886;-3.904;2023-07-08T06:31:38;23.40;93.30
51007;DHT22;37034;47.886;-3.904;2023-07-08T06:34:04;23.40;93.20
51007;DHT22;37034;47.886;-3.904;2023-07-08T06:36:30;23.40;93.30
51007;DHT22;37034;47.886;-3.904;2023-07-08T06:38:56;23.40;93.30
51007;DHT22;37034;47.886;-3.904;2023-07-08T06:41:22;23.30;93.30
51007;DHT22;37034;47.886;-3.904;2023-07-08T06:43:47;23.30;93.50
51007;DHT22;37034;47.886;-3.904;2023-07-08T06:46:13;23.40;93.60
51007;DHT22;37034;47.886;-3.904;2023-07-08T06:48:39;23.40;93.60
51007;DHT22;37034;47.886;-3.904;2023-07-08T06:51:06;23.50;93.60
51007;DHT22;37034;47.886;-3.904;2023-07-08T06:53:32;23.50;93.40
51007;DHT22;37034;47.886;-3.904;2023-07-08T06:55:57;23.50;93.30
51007;DHT22;37034;47.886;-3.904;2023-07-08T06:58:23;23.50;93.40
51007;DHT22;37034;47.886;-3.904;2023-07-08T07:00:49;23.50;93.50
51007;DHT22;37034;47.886;-3.904;2023-07-08T07:03:14;23.50;93.60
51007;DHT22;37034;47.886;-3.904;2023-07-08T07:05:40;23.50;93.70
51007;DHT22;37034;47.886;-3.904;2023-07-08T07:08:06;23.60;93.60
51007;DHT22;37034;47.886;-3.904;2023-07-08T07:10:33;23.50;93.70
51007;DHT22;37034;47.886;-3.904;2023-07-08T07:12:59;23.50;94.00
51007;DHT22;37034;47.886;-3.904;2023-07-08T07:15:25;23.40;93.70
51007;DHT22;37034;47.886;-3.904;2023-07-08T07:17:51;23.40;93.70
51007;DHT22;37034;47.886;-3.904;2023-07-08T07:20:17;23.40;93.60
51007;DHT22;37034;47.886;-3.904;2023-07-08T07:22:42;23.30;93.70
51007;DHT22;37034;47.886;-3.904;2023-07-08T07:25:08;23.30;93.70
51007;DHT22;37034;47.886;-3.904;2023-07-08T07:27:34;23.20;93.70
51007;DHT22;37034;47.886;-3.904;2023-07-08T07:30:00;23.20;93.80
51007;DHT22;37034;47.886;-3.904;2023-07-08T07:32:26;23.20;93.80
51007;DHT22;37034;47.886;-3.904;2023-07-08T07:34:52;23.20;94.00
51007;DHT22;37034;47.886;-3.904;2023-07-08T07:37:20;23.10;93.80
51007;DHT22;37034;47.886;-3.904;2023-07-08T07:39:46;23.00;94.10
51007;DHT22;37034;47.886;-3.904;2023-07-08T07:42:14;23.10;94.40
51007;DHT22;37034;47.886;-3.904;2023-07-08T07:44:40;23.00;94.30
51007;DHT22;37034;47.886;-3.904;2023-07-08T07:47:07;23.10;94.30
51007;DHT22;37034;47.886;-3.904;2023-07-08T07:49:33;23.10;94.20
51007;DHT22;37034;47.886;-3.904;2023-07-08T07:51:59;23.00;94.30
51007;DHT22;37034;47.886;-3.904;2023-07-08T07:54:25;23.10;94.40
51007;DHT22;37034;47.886;-3.904;2023-07-08T07:56:51;23.00;94.20
51007;DHT22;37034;47.886;-3.904;2023-07-08T07:59:17;23.00;94.30
51007;DHT22;37034;47.886;-3.904;2023-07-08T08:01:42;23.10;94.20
51007;DHT22;37034;47.886;-3.904;2023-07-08T08:04:10;23.10;94.30
51007;DHT22;37034;47.886;-3.904;2023-07-08T08:06:35;23.20;94.50
51007;DHT22;37034;47.886;-3.904;2023-07-08T08:09:02;23.30;94.60
51007;DHT22;37034;47.886;-3.904;2023-07-08T08:11:28;23.30;94.50
51007;DHT22;37034;47.886;-3.904;2023-07-08T08:13:54;23.40;94.50
51007;DHT22;37034;47.886;-3.904;2023-07-08T08:16:20;23.50;94.30
51007;DHT22;37034;47.886;-3.904;2023-07-08T08:18:46;23.60;94.30
51007;DHT22;37034;47.886;-3.904;2023-07-08T08:21:12;23.60;94.00
51007;DHT22;37034;47.886;-3.904;2023-07-08T08:23:38;23.60;93.70
51007;DHT22;37034;47.886;-3.904;2023-07-08T08:26:03;23.60;93.60
51007;DHT22;37034;47.886;-3.904;2023-07-08T08:28:29;23.50;93.60
51007;DHT22;37034;47.886;-3.904;2023-07-08T08:30:54;23.40;93.50
51007;DHT22;37034;47.886;-3.904;2023-07-08T08:33:21;23.40;93.60
51007;DHT22;37034;47.886;-3.904;2023-07-08T08:35:46;23.40;93.60
51007;DHT22;37034;47.886;-3.904;2023-07-08T08:38:12;23.40;93.70
51007;DHT22;37034;47.886;-3.904;2023-07-08T08:40:41;23.50;93.80
51007;DHT22;37034;47.886;-3.904;2023-07-08T08:43:14;23.50;93.60
51007;DHT22;37034;47.886;-3.904;2023-07-08T08:45:55;23.40;93.50
51007;DHT22;37034;47.886;-3.904;2023-07-08T08:48:21;23.40;93.50
51007;DHT22;37034;47.886;-3.904;2023-07-08T08:50:58;23.40;93.70
51007;DHT22;37034;47.886;-3.904;2023-07-08T08:53:26;23.50;93.80
51007;DHT22;37034;47.886;-3.904;2023-07-08T08:58:45;23.60;93.40
51007;DHT22;37034;47.886;-3.904;2023-07-08T09:01:15;23.60;93.50
51007;DHT22;37034;47.886;-3.904;2023-07-08T09:03:49;23.60;93.50
51007;DHT22;37034;47.886;-3.904;2023-07-08T09:06:25;23.60;93.40
51007;DHT22;37034;47.886;-3.904;2023-07-08T09:08:52;23.60;93.40
51007;DHT22;37034;47.886;-3.904;2023-07-08T09:14:03;23.60;93.30
51007;DHT22;37034;47.886;-3.904;2023-07-08T09:16:47;23.60;93.20
51007;DHT22;37034;47.886;-3.904;2023-07-08T09:21:57;23.50;93.30
51007;DHT22;37034;47.886;-3.904;2023-07-08T09:24:45;23.50;93.40
51007;DHT22;37034;47.886;-3.904;2023-07-08T09:27:13;23.60;93.70
51007;DHT22;37034;47.886;-3.904;2023-07-08T09:29:39;23.70;93.80
51007;DHT22;37034;47.886;-3.904;2023-07-08T09:32:16;23.80;93.90
51007;DHT22;37034;47.886;-3.904;2023-07-08T09:34:51;24.00;93.80
51007;DHT22;37034;47.886;-3.904;2023-07-08T09:37:31;24.10;93.60
51007;DHT22;37034;47.886;-3.904;2023-07-08T09:39:59;24.10;93.30
51007;DHT22;37034;47.886;-3.904;2023-07-08T09:42:30;24.20;93.30
51007;DHT22;37034;47.886;-3.904;2023-07-08T09:45:02;24.20;93.10
51007;DHT22;37034;47.886;-3.904;2023-07-08T09:47:36;24.20;93.40
51007;DHT22;37034;47.886;-3.904;2023-07-08T09:50:06;24.30;93.60
51007;DHT22;37034;47.886;-3.904;2023-07-08T09:52:38;24.40;93.60
51007;DHT22;37034;47.886;-3.904;2023-07-08T09:55:04;24.60;93.80
51007;DHT22;37034;47.886;-3.904;2023-07-08T09:57:32;24.70;93.90
51007;DHT22;37034;47.886;-3.904;2023-07-08T10:00:00;24.90;93.10
51007;DHT22;37034;47.886;-3.904;2023-07-08T10:03:12;25.00;93.10
51007;DHT22;37034;47.886;-3.904;2023-07-08T10:05:43;25.00;92.50
51007;DHT22;37034;47.886;-3.904;2023-07-08T10:08:19;25.10;93.20
51007;DHT22;37034;47.886;-3.904;2023-07-08T10:10:47;25.20;92.50
51007;DHT22;37034;47.886;-3.904;2023-07-08T10:13:23;25.30;92.50
51007;DHT22;37034;47.886;-3.904;2023-07-08T10:15:56;25.30;92.10
51007;DHT22;37034;47.886;-3.904;2023-07-08T10:18:28;25.30;92.10
51007;DHT22;37034;47.886;-3.904;2023-07-08T10:21:03;25.40;92.60
51007;DHT22;37034;47.886;-3.904;2023-07-08T10:26:27;25.70;91.90
51007;DHT22;37034;47.886;-3.904;2023-07-08T10:37:25;25.90;90.90
51007;DHT22;37034;47.886;-3.904;2023-07-08T10:45:13;26.10;90.10
51007;DHT22;37034;47.886;-3.904;2023-07-08T10:50:40;26.10;88.40
51007;DHT22;37034;47.886;-3.904;2023-07-08T11:01:44;26.20;85.90
51007;DHT22;37034;47.886;-3.904;2023-07-08T11:07:24;26.30;86.80
51007;DHT22;37034;47.886;-3.904;2023-07-08T11:09:56;26.40;88.50
51007;DHT22;37034;47.886;-3.904;2023-07-08T11:12:33;26.60;87.70
51007;DHT22;37034;47.886;-3.904;2023-07-08T11:15:13;26.70;85.60
51007;DHT22;37034;47.886;-3.904;2023-07-08T11:17:46;26.70;86.10
51007;DHT22;37034;47.886;-3.904;2023-07-08T11:20:50;26.70;85.90
51007;DHT22;37034;47.886;-3.904;2023-07-08T11:23:38;26.80;84.80
51007;DHT22;37034;47.886;-3.904;2023-07-08T11:28:43;26.80;85.50
51007;DHT22;37034;47.886;-3.904;2023-07-08T11:31:09;26.80;85.30
51007;DHT22;37034;47.886;-3.904;2023-07-08T11:33:36;26.90;83.20
51007;DHT22;37034;47.886;-3.904;2023-07-08T11:36:04;26.90;83.20
51007;DHT22;37034;47.886;-3.904;2023-07-08T11:38:32;26.80;82.90
51007;DHT22;37034;47.886;-3.904;2023-07-08T11:41:05;26.80;83.90
51007;DHT22;37034;47.886;-3.904;2023-07-08T11:44:04;26.90;83.80
51007;DHT22;37034;47.886;-3.904;2023-07-08T11:46:32;27.00;82.30
51007;DHT22;37034;47.886;-3.904;2023-07-08T11:49:04;27.00;83.20
51007;DHT22;37034;47.886;-3.904;2023-07-08T11:51:36;27.10;83.90
51007;DHT22;37034;47.886;-3.904;2023-07-08T11:54:20;27.30;82.60
51007;DHT22;37034;47.886;-3.904;2023-07-08T11:57:03;27.30;81.30
51007;DHT22;37034;47.886;-3.904;2023-07-08T11:59:33;27.30;80.80
51007;DHT22;37034;47.886;-3.904;2023-07-08T12:02:13;27.40;82.10
51007;DHT22;37034;47.886;-3.904;2023-07-08T12:05:31;27.40;80.60
51007;DHT22;37034;47.886;-3.904;2023-07-08T12:07:56;27.30;81.10
51007;DHT22;37034;47.886;-3.904;2023-07-08T12:10:37;27.40;81.10
51007;DHT22;37034;47.886;-3.904;2023-07-08T12:13:13;27.50;81.90
51007;DHT22;37034;47.886;-3.904;2023-07-08T12:15:40;27.60;82.00
51007;DHT22;37034;47.886;-3.904;2023-07-08T12:18:21;27.70;82.20
51007;DHT22;37034;47.886;-3.904;2023-07-08T12:20:58;27.80;82.20
51007;DHT22;37034;47.886;-3.904;2023-07-08T12:23:25;28.00;80.10
51007;DHT22;37034;47.886;-3.904;2023-07-08T12:25:53;28.10;81.50
51007;DHT22;37034;47.886;-3.904;2023-07-08T12:28:20;28.10;80.10
51007;DHT22;37034;47.886;-3.904;2023-07-08T12:30:47;28.10;80.80
51007;DHT22;37034;47.886;-3.904;2023-07-08T12:33:29;28.10;79.60
51007;DHT22;37034;47.886;-3.904;2023-07-08T12:35:56;28.00;79.70
51007;DHT22;37034;47.886;-3.904;2023-07-08T12:38:38;27.90;79.90
51007;DHT22;37034;47.886;-3.904;2023-07-08T12:41:20;27.80;79.50
51007;DHT22;37034;47.886;-3.904;2023-07-08T12:43:47;27.80;79.10
51007;DHT22;37034;47.886;-3.904;2023-07-08T12:46:14;27.90;80.30
51007;DHT22;37034;47.886;-3.904;2023-07-08T12:48:40;28.00;80.20
51007;DHT22;37034;47.886;-3.904;2023-07-08T12:51:12;28.10;80.10
51007;DHT22;37034;47.886;-3.904;2023-07-08T12:53:38;28.00;77.80
51007;DHT22;37034;47.886;-3.904;2023-07-08T12:56:05;28.00;78.10
51007;DHT22;37034;47.886;-3.904;2023-07-08T12:58:34;27.90;78.40
51007;DHT22;37034;47.886;-3.904;2023-07-08T13:01:03;27.90;78.50
51007;DHT22;37034;47.886;-3.904;2023-07-08T13:03:34;27.80;78.20
51007;DHT22;37034;47.886;-3.904;2023-07-08T13:06:01;27.70;78.20
51007;DHT22;37034;47.886;-3.904;2023-07-08T13:08:30;27.80;77.90
51007;DHT22;37034;47.886;-3.904;2023-07-08T13:11:00;27.70;76.80
51007;DHT22;37034;47.886;-3.904;2023-07-08T13:13:30;27.70;77.30
51007;DHT22;37034;47.886;-3.904;2023-07-08T13:15:57;27.70;78.10
51007;DHT22;37034;47.886;-3.904;2023-07-08T13:18:34;27.70;77.50
51007;DHT22;37034;47.886;-3.904;2023-07-08T13:21:00;27.70;76.70
51007;DHT22;37034;47.886;-3.904;2023-07-08T13:23:27;27.70;77.40
51007;DHT22;37034;47.886;-3.904;2023-07-08T13:25:54;27.70;77.20
51007;DHT22;37034;47.886;-3.904;2023-07-08T13:28:25;27.70;77.20
51007;DHT22;37034;47.886;-3.904;2023-07-08T13:33:21;27.50;77.30
51007;DHT22;37034;47.886;-3.904;2023-07-08T13:35:48;27.60;77.80
51007;DHT22;37034;47.886;-3.904;2023-07-08T13:38:20;27.70;76.90
51007;DHT22;37034;47.886;-3.904;2023-07-08T13:40:49;27.80;77.70
51007;DHT22;37034;47.886;-3.904;2023-07-08T13:43:15;27.90;77.00
51007;DHT22;37034;47.886;-3.904;2023-07-08T13:45:45;27.90;75.70
51007;DHT22;37034;47.886;-3.904;2023-07-08T13:48:24;27.80;75.40
51007;DHT22;37034;47.886;-3.904;2023-07-08T13:56:18;27.60;75.10
51007;DHT22;37034;47.886;-3.904;2023-07-08T13:58:48;27.70;74.60
51007;DHT22;37034;47.886;-3.904;2023-07-08T14:01:22;27.70;73.90
51007;DHT22;37034;47.886;-3.904;2023-07-08T14:03:49;27.80;75.10
51007;DHT22;37034;47.886;-3.904;2023-07-08T14:06:24;27.80;74.90
51007;DHT22;37034;47.886;-3.904;2023-07-08T14:08:54;27.90;74.10
51007;DHT22;37034;47.886;-3.904;2023-07-08T14:11:20;27.80;72.30
51007;DHT22;37034;47.886;-3.904;2023-07-08T14:13:46;27.70;73.30
51007;DHT22;37034;47.886;-3.904;2023-07-08T14:16:28;27.70;73.50
51007;DHT22;37034;47.886;-3.904;2023-07-08T14:18:57;27.60;73.00
51007;DHT22;37034;47.886;-3.904;2023-07-08T14:21:23;27.70;74.70
51007;DHT22;37034;47.886;-3.904;2023-07-08T14:23:49;27.80;75.60
51007;DHT22;37034;47.886;-3.904;2023-07-08T14:26:15;27.70;74.20
51007;DHT22;37034;47.886;-3.904;2023-07-08T14:28:40;27.70;74.70
51007;DHT22;37034;47.886;-3.904;2023-07-08T14:31:16;27.70;75.50
51007;DHT22;37034;47.886;-3.904;2023-07-08T14:33:42;27.60;75.70
51007;DHT22;37034;47.886;-3.904;2023-07-08T14:36:12;27.60;75.70
51007;DHT22;37034;47.886;-3.904;2023-07-08T14:38:40;27.50;76.20
51007;DHT22;37034;47.886;-3.904;2023-07-08T14:41:05;27.50;76.10
51007;DHT22;37034;47.886;-3.904;2023-07-08T14:43:33;27.60;76.50
51007;DHT22;37034;47.886;-3.904;2023-07-08T14:46:01;27.60;75.80
51007;DHT22;37034;47.886;-3.904;2023-07-08T14:48:30;27.60;76.40
51007;DHT22;37034;47.886;-3.904;2023-07-08T14:50:56;27.70;76.60
51007;DHT22;37034;47.886;-3.904;2023-07-08T14:53:22;27.70;76.60
51007;DHT22;37034;47.886;-3.904;2023-07-08T14:55:50;27.70;76.60
51007;DHT22;37034;47.886;-3.904;2023-07-08T14:58:37;27.70;76.50
51007;DHT22;37034;47.886;-3.904;2023-07-08T15:01:08;27.70;76.70
51007;DHT22;37034;47.886;-3.904;2023-07-08T15:03:37;27.70;76.40
51007;DHT22;37034;47.886;-3.904;2023-07-08T15:06:02;27.70;76.40
51007;DHT22;37034;47.886;-3.904;2023-07-08T15:08:28;27.70;76.40
51007;DHT22;37034;47.886;-3.904;2023-07-08T15:10:54;27.70;74.90
51007;DHT22;37034;47.886;-3.904;2023-07-08T15:13:21;27.60;75.10
51007;DHT22;37034;47.886;-3.904;2023-07-08T15:15:51;27.60;74.70
51007;DHT22;37034;47.886;-3.904;2023-07-08T15:18:18;27.50;74.80
51007;DHT22;37034;47.886;-3.904;2023-07-08T15:20:45;27.60;74.70
51007;DHT22;37034;47.886;-3.904;2023-07-08T15:23:11;27.60;73.80
51007;DHT22;37034;47.886;-3.904;2023-07-08T15:25:38;27.60;73.40
51007;DHT22;37034;47.886;-3.904;2023-07-08T15:28:05;27.60;73.40
51007;DHT22;37034;47.886;-3.904;2023-07-08T15:30:33;27.70;72.60
51007;DHT22;37034;47.886;-3.904;2023-07-08T15:32:58;27.60;72.60
51007;DHT22;37034;47.886;-3.904;2023-07-08T15:35:28;27.60;72.60
51007;DHT22;37034;47.886;-3.904;2023-07-08T15:37:58;27.60;72.60
51007;DHT22;37034;47.886;-3.904;2023-07-08T15:40:25;27.60;72.90
51007;DHT22;37034;47.886;-3.904;2023-07-08T15:42:55;27.70;72.60
51007;DHT22;37034;47.886;-3.904;2023-07-08T15:45:26;27.60;72.40
51007;DHT22;37034;47.886;-3.904;2023-07-08T15:47:53;27.60;72.50
51007;DHT22;37034;47.886;-3.904;2023-07-08T15:50:25;27.60;73.30
51007;DHT22;37034;47.886;-3.904;2023-07-08T15:52:51;27.60;73.60
51007;DHT22;37034;47.886;-3.904;2023-07-08T15:55:24;27.60;74.60
51007;DHT22;37034;47.886;-3.904;2023-07-08T15:58:06;27.70;73.80
51007;DHT22;37034;47.886;-3.904;2023-07-08T16:00:36;27.60;71.90
51007;DHT22;37034;47.886;-3.904;2023-07-08T16:03:24;27.50;72.50
51007;DHT22;37034;47.886;-3.904;2023-07-08T16:05:50;27.50;72.20
51007;DHT22;37034;47.886;-3.904;2023-07-08T16:08:16;27.50;72.40
51007;DHT22;37034;47.886;-3.904;2023-07-08T16:10:43;27.40;73.00
51007;DHT22;37034;47.886;-3.904;2023-07-08T16:13:11;27.40;73.40
51007;DHT22;37034;47.886;-3.904;2023-07-08T16:15:37;27.40;73.40
51007;DHT22;37034;47.886;-3.904;2023-07-08T16:18:04;27.30;72.30
51007;DHT22;37034;47.886;-3.904;2023-07-08T16:20:34;27.20;72.90